East Kingsford, Michigan
Current Conditions -  °F | °C
As of 8:54 PM on Sunday 23 Nov 2014 (Local Time) from KIMT Reporting Station
Haze Haze  
Wind Chill: 40°   Ceiling: 200
Heat Index: 40°   Visibility: 0.75mi
Dew Point: 39°   Wind: 0mph
Humidity: 97%   Direction: NA
Pressure: 29.29"   Gusts: NA
Location:  45.9025°N, 88.0366°W
Report Text: KIMT 240254Z AUTO 00000KT 3/4SM BR OVC002 04/04 A2929 RMK AO2 RAE48 SLP929 P0000 60000 T00440039 58033
Loading
Personal Weather Stations






























Interactive Weather Map New forecast layout! Learn more

10-Day Weather Forecast

Advertisements
Track Severe Weather on mobile